Guillo Perez — EA6341 — position and weather

sailwx.info

Track history (hours):
 
Tides and Currents Weather Stations Pressure Air Temp Water Temp Dewpoint Dewpoint Depression Visibility Wind Speed Wind Dir Waves Ship Positions

Guillo Perez

Last reported at 2018-Apr-26 12:25 UTC. Time now 2018-Apr-26 19:16 UTC.
Position N 38°02' W 000°31'.

Length 24 m.

Type: Fishing. MMSI: 224072690.

Date/timePositionNaut miles runAvg speedWind from/ knotsBaromVisibWave heightAir tempDewpointWater temp
2018-Apr-26 12:25N 38°02' W 000°31'3 3.1
2018-Apr-26 11:31N 37°59' W 000°32'4 4.5
2018-Apr-26 10:32N 37°55' W 000°35'1 3.2
2018-Apr-26 10:19N 37°54' W 000°35'1 3.1
2018-Apr-26 10:00N 37°53' W 000°35'8 3.2
2018-Apr-26 07:29N 37°46' W 000°32'0 0.9
2018-Apr-26 06:58N 37°46' W 000°32'2 3.2
2018-Apr-26 06:16N 37°48' W 000°33'1 3.2
2018-Apr-26 06:01N 37°49' W 000°33'4 3.2
2018-Apr-26 04:54N 37°52' W 000°32'1 3.3
2018-Apr-26 04:29N 37°54' W 000°31'6 0.4
2018-Apr-25 13:31N 37°59' W 000°35'210.8
2018-Apr-25 13:21N 37°57' W 000°35'11 3.2
2018-Apr-25 09:58N 37°46' W 000°34'2 4.8
2018-Apr-25 09:28N 37°48' W 000°36'1 3.1
2018-Apr-25 08:59N 37°49' W 000°36'2 3.1
2018-Apr-25 08:30N 37°51' W 000°37'2 3.2
2018-Apr-25 08:00N 37°52' W 000°37'1 3.0
2018-Apr-25 07:31N 37°54' W 000°36'1 1.9
2018-Apr-25 06:57N 37°55' W 000°36'1 3.2
2018-Apr-25 06:30N 37°56' W 000°36'2 3.2
2018-Apr-25 06:00N 37°58' W 000°37'2 3.2
2018-Apr-25 05:27N 37°59' W 000°36'6 0.1
2018-Apr-23 10:21N 37°54' W 000°35'1 3.2
2018-Apr-23 09:57N 37°52' W 000°35'3 2.9
2018-Apr-23 08:57N 37°50' W 000°35'1 2.5
2018-Apr-23 08:31N 37°49' W 000°37'2 3.1
2018-Apr-23 08:01N 37°51' W 000°37'2 3.2
2018-Apr-23 07:31N 37°52' W 000°37'2 3.2
2018-Apr-23 06:59N 37°54' W 000°37'2 3.2
2018-Apr-23 06:30N 37°56' W 000°37'2 3.3
2018-Apr-23 05:59N 37°57' W 000°37'2 3.2
2018-Apr-23 05:19N 37°59' W 000°36'  
2018-Apr-20 10:57N 37°57' W 000°35'5 3.0
2018-Apr-20 09:15N 37°52' W 000°35'1 4.4
2018-Apr-20 08:57N 37°51' W 000°35'2 4.8
2018-Apr-20 08:30N 37°49' W 000°37'2 3.2
2018-Apr-20 08:00N 37°51' W 000°37'2 3.3
2018-Apr-20 07:30N 37°52' W 000°37'2 3.3
2018-Apr-20 07:00N 37°54' W 000°37'2 3.3
2018-Apr-20 06:30N 37°56' W 000°37'2 3.3
2018-Apr-20 05:57N 37°57' W 000°37'3 0.2
2018-Apr-19 12:44N 37°58' W 000°33'1 3.1
2018-Apr-19 12:30N 37°58' W 000°34'4 3.0
2018-Apr-19 11:07N 37°54' W 000°35'0 3.2
2018-Apr-19 11:00N 37°53' W 000°35'7 3.1
2018-Apr-19 08:38N 37°46' W 000°33'1 6.4
2018-Apr-19 08:30N 37°45' W 000°34'1 1.6
2018-Apr-19 08:00N 37°46' W 000°33'2 3.2
2018-Apr-19 07:17N 37°48' W 000°34'1 3.2
2018-Apr-19 07:00N 37°49' W 000°34'2 3.2
2018-Apr-19 06:30N 37°51' W 000°34'2 3.2
2018-Apr-19 06:00N 37°52' W 000°35'2 3.2
2018-Apr-19 05:30N 37°54' W 000°35'3 3.2
2018-Apr-19 04:30N 37°57' W 000°34'4 0.2
2018-Apr-18 10:10N 37°53' W 000°35'1 3.0
2018-Apr-18 10:00N 37°53' W 000°35'6 3.1
2018-Apr-18 07:55N 37°46' W 000°34'1 2.0
2018-Apr-18 07:30N 37°46' W 000°34'2 3.4
2018-Apr-18 06:55N 37°48' W 000°34'1 3.3
2018-Apr-18 06:29N 37°49' W 000°34'2 3.3
2018-Apr-18 05:59N 37°51' W 000°34'2 3.3
2018-Apr-18 05:30N 37°52' W 000°34'2 3.3
2018-Apr-18 04:59N 37°54' W 000°35'2 3.3
2018-Apr-18 04:24N 37°56' W 000°34'4 0.3
2018-Apr-17 13:18N 37°60' W 000°35'1 3.1
2018-Apr-17 13:00N 37°59' W 000°35'4 3.1
2018-Apr-17 11:38N 37°54' W 000°35'0 3.2
2018-Apr-17 11:30N 37°54' W 000°35'1 2.3
2018-Apr-17 11:00N 37°53' W 000°35'1 1.9
2018-Apr-17 10:20N 37°54' W 000°35'1 3.0
2018-Apr-17 10:00N 37°53' W 000°35'8 3.3
2018-Apr-17 07:34N 37°45' W 000°33'0 6.3
2018-Apr-17 07:30N 37°45' W 000°33'1 2.0
2018-Apr-17 06:48N 37°46' W 000°33'1 3.3
2018-Apr-17 06:21N 37°48' W 000°33'1 3.3
2018-Apr-17 05:59N 37°49' W 000°33'2 3.3
2018-Apr-17 05:28N 37°51' W 000°34'2 3.2
2018-Apr-17 04:59N 37°52' W 000°34'2 4.9
2018-Apr-17 04:30N 37°54' W 000°34'3 0.2
2018-Apr-16 13:37N 37°57' W 000°34'0 1.7
2018-Apr-16 13:29N 37°57' W 000°34'  
Track history (hours):
 
Tides and Currents Weather Stations Pressure Air Temp Water Temp Dewpoint Dewpoint Depression Visibility Wind Speed Wind Dir Waves Ship Positions

Guillo Perez

Last reported at 2018-Apr-26 12:25 UTC. Time now 2018-Apr-26 19:16 UTC.
Position N 38°02' W 000°31'.

Length 24 m.

Type: Fishing. MMSI: 224072690.

Date/timePositionNaut miles runAvg speedWind from/ knotsBaromVisibWave heightAir tempDewpointWater temp
2018-Apr-26 12:25N 38°02' W 000°31'3 3.1
2018-Apr-26 11:31N 37°59' W 000°32'4 4.5
2018-Apr-26 10:32N 37°55' W 000°35'1 3.2
2018-Apr-26 10:19N 37°54' W 000°35'1 3.1
2018-Apr-26 10:00N 37°53' W 000°35'8 3.2
2018-Apr-26 07:29N 37°46' W 000°32'0 0.9
2018-Apr-26 06:58N 37°46' W 000°32'2 3.2
2018-Apr-26 06:16N 37°48' W 000°33'1 3.2
2018-Apr-26 06:01N 37°49' W 000°33'4 3.2
2018-Apr-26 04:54N 37°52' W 000°32'1 3.3
2018-Apr-26 04:29N 37°54' W 000°31'6 0.4
2018-Apr-25 13:31N 37°59' W 000°35'210.8
2018-Apr-25 13:21N 37°57' W 000°35'11 3.2
2018-Apr-25 09:58N 37°46' W 000°34'2 4.8
2018-Apr-25 09:28N 37°48' W 000°36'1 3.1
2018-Apr-25 08:59N 37°49' W 000°36'2 3.1
2018-Apr-25 08:30N 37°51' W 000°37'2 3.2
2018-Apr-25 08:00N 37°52' W 000°37'1 3.0
2018-Apr-25 07:31N 37°54' W 000°36'1 1.9
2018-Apr-25 06:57N 37°55' W 000°36'1 3.2
2018-Apr-25 06:30N 37°56' W 000°36'2 3.2
2018-Apr-25 06:00N 37°58' W 000°37'2 3.2
2018-Apr-25 05:27N 37°59' W 000°36'6 0.1
2018-Apr-23 10:21N 37°54' W 000°35'1 3.2
2018-Apr-23 09:57N 37°52' W 000°35'3 2.9
2018-Apr-23 08:57N 37°50' W 000°35'1 2.5
2018-Apr-23 08:31N 37°49' W 000°37'2 3.1
2018-Apr-23 08:01N 37°51' W 000°37'2 3.2
2018-Apr-23 07:31N 37°52' W 000°37'2 3.2
2018-Apr-23 06:59N 37°54' W 000°37'2 3.2
2018-Apr-23 06:30N 37°56' W 000°37'2 3.3
2018-Apr-23 05:59N 37°57' W 000°37'2 3.2
2018-Apr-23 05:19N 37°59' W 000°36'  
2018-Apr-20 10:57N 37°57' W 000°35'5 3.0
2018-Apr-20 09:15N 37°52' W 000°35'1 4.4
2018-Apr-20 08:57N 37°51' W 000°35'2 4.8
2018-Apr-20 08:30N 37°49' W 000°37'2 3.2
2018-Apr-20 08:00N 37°51' W 000°37'2 3.3
2018-Apr-20 07:30N 37°52' W 000°37'2 3.3
2018-Apr-20 07:00N 37°54' W 000°37'2 3.3
2018-Apr-20 06:30N 37°56' W 000°37'2 3.3
2018-Apr-20 05:57N 37°57' W 000°37'3 0.2
2018-Apr-19 12:44N 37°58' W 000°33'1 3.1
2018-Apr-19 12:30N 37°58' W 000°34'4 3.0
2018-Apr-19 11:07N 37°54' W 000°35'0 3.2
2018-Apr-19 11:00N 37°53' W 000°35'7 3.1
2018-Apr-19 08:38N 37°46' W 000°33'1 6.4
2018-Apr-19 08:30N 37°45' W 000°34'1 1.6
2018-Apr-19 08:00N 37°46' W 000°33'2 3.2
2018-Apr-19 07:17N 37°48' W 000°34'1 3.2
2018-Apr-19 07:00N 37°49' W 000°34'2 3.2
2018-Apr-19 06:30N 37°51' W 000°34'2 3.2
2018-Apr-19 06:00N 37°52' W 000°35'2 3.2
2018-Apr-19 05:30N 37°54' W 000°35'3 3.2
2018-Apr-19 04:30N 37°57' W 000°34'4 0.2
2018-Apr-18 10:10N 37°53' W 000°35'1 3.0
2018-Apr-18 10:00N 37°53' W 000°35'6 3.1
2018-Apr-18 07:55N 37°46' W 000°34'1 2.0
2018-Apr-18 07:30N 37°46' W 000°34'2 3.4
2018-Apr-18 06:55N 37°48' W 000°34'1 3.3
2018-Apr-18 06:29N 37°49' W 000°34'2 3.3
2018-Apr-18 05:59N 37°51' W 000°34'2 3.3
2018-Apr-18 05:30N 37°52' W 000°34'2 3.3
2018-Apr-18 04:59N 37°54' W 000°35'2 3.3
2018-Apr-18 04:24N 37°56' W 000°34'4 0.3
2018-Apr-17 13:18N 37°60' W 000°35'1 3.1
2018-Apr-17 13:00N 37°59' W 000°35'4 3.1
2018-Apr-17 11:38N 37°54' W 000°35'0 3.2
2018-Apr-17 11:30N 37°54' W 000°35'1 2.3
2018-Apr-17 11:00N 37°53' W 000°35'1 1.9
2018-Apr-17 10:20N 37°54' W 000°35'1 3.0
2018-Apr-17 10:00N 37°53' W 000°35'8 3.3
2018-Apr-17 07:34N 37°45' W 000°33'0 6.3
2018-Apr-17 07:30N 37°45' W 000°33'1 2.0
2018-Apr-17 06:48N 37°46' W 000°33'1 3.3
2018-Apr-17 06:21N 37°48' W 000°33'1 3.3
2018-Apr-17 05:59N 37°49' W 000°33'2 3.3
2018-Apr-17 05:28N 37°51' W 000°34'2 3.2
2018-Apr-17 04:59N 37°52' W 000°34'2 4.9
2018-Apr-17 04:30N 37°54' W 000°34'3 0.2
2018-Apr-16 13:37N 37°57' W 000°34'0 1.7
2018-Apr-16 13:29N 37°57' W 000°34'  

Dump ship's entire track history